Time;durP1;ratioP1;P1;durP2;ratioP2;P2;SDS_P1;SDS_P2;PMS_P1;PMS_P2;Temp;Humidity;BMP_temperature;BMP_pressure;BME280_temperature;BME280_humidity;BME280_pressure;Samples;Min_cycle;Max_cycle;Signal;HPM_P1;HPM_P2
2023/10/08 00:01:06;;;;;;;2.45;1.80;;;;;;;19.18;52.51;97641.03;10292518;28;20050;-29
2023/10/08 00:06:06;;;;;;;5.63;2.53;;;;;;;19.18;53.14;97651.19;10286271;28;20088;-28
2023/10/08 00:11:07;;;;;;;2.60;1.80;;;;;;;19.18;52.48;97644.41;10291728;28;20073;-29
2023/10/08 00:16:15;;;;;;;2.88;1.90;;;;;;;19.17;52.71;97634.25;10291013;28;20038;-27
2023/10/08 00:21:16;;;;;;;5.45;2.03;;;;;;;19.18;52.53;97635.97;10286512;28;20043;-28
2023/10/08 00:26:20;;;;;;;4.10;1.98;;;;;;;19.17;52.61;97634.25;10271166;28;20528;-28
2023/10/08 00:31:30;;;;;;;4.68;2.28;;;;;;;19.17;53.29;97637.63;10288079;28;20026;-28
2023/10/08 00:36:30;;;;;;;3.63;1.88;;;;;;;19.18;52.90;97641.03;10277684;28;20037;-28
2023/10/08 00:41:32;;;;;;;4.83;2.40;;;;;;;19.16;53.92;97635.09;10287010;28;20038;-28
2023/10/08 00:46:44;;;;;;;2.97;1.70;;;;;;;19.15;53.22;97625.75;10289531;28;20085;-28
2023/10/08 00:57:07;;;;;;;4.88;1.98;;;;;;;19.16;52.77;97613.06;10289705;28;20031;-28
2023/10/08 01:02:14;;;;;;;6.78;2.75;;;;;;;19.17;52.73;97613.94;10289065;28;20034;-28
2023/10/08 01:07:18;;;;;;;4.15;1.92;;;;;;;19.17;53.16;97611.41;10278751;28;20038;-28
2023/10/08 01:12:27;;;;;;;3.35;1.77;;;;;;;19.17;53.01;97606.31;10288974;28;20469;-29
2023/10/08 01:17:32;;;;;;;3.35;1.88;;;;;;;19.16;52.90;97600.38;10287166;28;20031;-28
2023/10/08 01:22:33;;;;;;;2.60;2.08;;;;;;;19.15;53.09;97592.75;10289203;28;20501;-28
2023/10/08 01:27:34;;;;;;;2.75;1.88;;;;;;;19.17;52.68;97593.63;10280320;28;20043;-28
2023/10/08 01:32:34;;;;;;;3.65;2.05;;;;;;;19.17;53.15;97583.47;10281324;28;20134;-28
2023/10/08 01:37:34;;;;;;;2.73;1.70;;;;;;;19.16;52.95;97594.47;10286192;28;20049;-27
2023/10/08 01:42:38;;;;;;;5.60;2.13;;;;;;;19.15;53.60;97590.19;10286670;28;20302;-28
2023/10/08 01:47:39;;;;;;;4.53;1.83;;;;;;;19.15;53.91;97590.19;10279242;28;20031;-29
2023/10/08 01:52:40;;;;;;;3.17;1.88;;;;;;;19.15;54.44;97595.28;10280616;28;20046;-29
2023/10/08 01:57:43;;;;;;;4.05;2.30;;;;;;;19.15;53.44;97582.59;10283925;28;20042;-28
2023/10/08 02:02:43;;;;;;;2.90;1.80;;;;;;;19.15;53.56;97580.06;10278573;28;20094;-28
2023/10/08 02:07:46;;;;;;;3.07;1.77;;;;;;;19.16;52.81;97584.31;10275924;28;20043;-28
2023/10/08 02:12:47;;;;;;;2.95;1.70;;;;;;;19.15;52.55;97575.84;10279047;28;20486;-28
2023/10/08 02:17:49;;;;;;;2.83;1.53;;;;;;;19.15;53.10;97585.13;10283130;28;20031;-29
2023/10/08 02:22:49;;;;;;;4.70;2.35;;;;;;;19.16;52.69;97591.94;10284760;28;20057;-26
2023/10/08 02:27:49;;;;;;;3.73;2.13;;;;;;;19.14;53.79;97585.97;10277478;28;20045;-27
2023/10/08 02:32:51;;;;;;;4.97;2.03;;;;;;;19.15;52.87;97585.13;10282154;28;20042;-29
2023/10/08 02:37:52;;;;;;;3.13;2.25;;;;;;;19.15;53.55;97585.13;10286402;28;20413;-28
2023/10/08 02:42:58;;;;;;;2.65;1.60;;;;;;;19.15;53.21;97582.59;10285257;28;20034;-27
2023/10/08 02:47:59;;;;;;;3.47;1.83;;;;;;;19.15;53.09;97580.06;10278307;28;20481;-28
2023/10/08 02:53:03;;;;;;;2.65;1.67;;;;;;;19.15;53.21;97574.97;10277711;28;20654;-27
2023/10/08 02:58:03;;;;;;;3.15;1.83;;;;;;;19.14;54.45;97573.28;10284051;28;20043;-27
2023/10/08 03:03:15;;;;;;;3.33;1.90;;;;;;;19.14;53.97;97575.81;10281692;28;20429;-27
2023/10/08 03:08:20;;;;;;;3.40;1.65;;;;;;;19.14;53.01;97573.28;10284258;28;20321;-28
2023/10/08 03:13:22;;;;;;;3.03;1.88;;;;;;;19.14;53.28;97571.59;10281138;28;20061;-28
2023/10/08 03:18:22;;;;;;;3.45;1.98;;;;;;;19.15;53.14;97569.91;10277309;28;20022;-28
2023/10/08 03:23:33;;;;;;;2.23;1.63;;;;;;;19.13;53.33;97567.38;10282019;28;20478;-27
2023/10/08 03:28:34;;;;;;;3.00;1.70;;;;;;;19.13;53.81;97566.50;10284497;28;20035;-27
2023/10/08 03:33:37;;;;;;;2.97;1.75;;;;;;;19.15;53.17;97569.91;10280476;28;20051;-28
2023/10/08 03:38:52;;;;;;;2.20;1.80;;;;;;;19.13;53.43;97566.50;10278982;28;20508;-27
2023/10/08 03:43:58;;;;;;;2.67;1.60;;;;;;;19.14;53.94;97565.66;10280195;28;20038;-27
2023/10/08 03:49:04;;;;;;;3.90;1.50;;;;;;;19.13;53.33;97566.50;10260238;28;20039;-27
2023/10/08 03:54:18;;;;;;;3.42;1.55;;;;;;;19.13;53.09;97572.44;10281950;28;20066;-28
2023/10/08 03:59:30;;;;;;;3.75;1.80;;;;;;;19.13;53.56;97566.50;10279566;28;20517;-28
2023/10/08 04:04:48;;;;;;;3.38;2.20;;;;;;;19.13;54.34;97576.66;10291018;28;20049;-28
2023/10/08 04:09:52;;;;;;;3.10;1.95;;;;;;;19.13;53.72;97574.13;10287318;28;20493;-27
2023/10/08 04:14:55;;;;;;;3.00;1.58;;;;;;;19.13;53.57;97561.41;10291316;28;20058;-27
2023/10/08 04:19:58;;;;;;;4.20;2.03;;;;;;;19.08;54.77;97563.06;10290332;28;20038;-28
2023/10/08 04:25:02;;;;;;;2.72;1.45;;;;;;;19.12;53.56;97565.66;10288867;28;20034;-29
2023/10/08 04:30:03;;;;;;;4.20;2.40;;;;;;;19.12;54.46;97564.81;10288683;28;20409;-28
2023/10/08 04:35:07;;;;;;;3.20;1.80;;;;;;;19.12;54.22;97569.88;10289170;28;20058;-26
2023/10/08 04:40:16;;;;;;;4.38;2.28;;;;;;;19.11;54.72;97571.59;10290444;28;20061;-28
2023/10/08 04:45:19;;;;;;;3.20;1.80;;;;;;;19.13;54.23;97581.72;10289674;28;20042;-28
2023/10/08 04:50:21;;;;;;;4.45;2.22;;;;;;;19.11;53.67;97570.72;10287629;28;20576;-28
2023/10/08 04:55:28;;;;;;;9.52;2.00;;;;;;;19.10;54.91;97564.78;10289346;28;20038;-28
2023/10/08 05:00:43;;;;;;;1.95;1.33;;;;;;;19.10;53.83;97567.31;10283116;28;20043;-28
2023/10/08 05:11:24;;;;;;;4.25;1.98;;;;;;;19.10;54.60;97561.41;10284673;28;20039;-28
2023/10/08 05:16:43;;;;;;;2.00;1.23;;;;;;;19.10;53.63;97561.41;10288266;28;20489;-27
2023/10/08 05:21:51;;;;;;;4.55;1.90;;;;;;;19.09;53.36;97563.06;10289445;28;20110;-28
2023/10/08 05:27:08;;;;;;;3.47;1.92;;;;;;;19.10;54.47;97566.47;10281105;28;20062;-28
2023/10/08 05:37:41;;;;;;;3.17;1.75;;;;;;;19.05;54.88;97547.78;10291639;28;20027;-28
2023/10/08 05:42:46;;;;;;;5.20;2.20;;;;;;;19.09;54.99;97554.63;10279475;28;20040;-28
2023/10/08 05:48:08;;;;;;;3.95;2.10;;;;;;;19.09;54.46;97549.53;10289224;28;20031;-30
2023/10/08 05:53:43;;;;;;;4.68;2.30;;;;;;;19.08;54.91;97552.94;10284968;28;20044;-28
2023/10/08 05:58:46;;;;;;;5.68;1.83;;;;;;;19.10;55.02;97553.78;10290186;28;20037;-28
2023/10/08 06:04:00;;;;;;;2.65;1.67;;;;;;;19.09;54.74;97564.78;10288670;28;20046;-28
2023/10/08 06:14:36;;;;;;;4.00;1.60;;;;;;;19.09;53.94;97558.00;10288922;28;20162;-28
2023/10/08 06:19:38;;;;;;;4.13;1.92;;;;;;;19.09;54.77;97564.78;10288563;28;20038;-28
2023/10/08 06:24:38;;;;;;;3.05;1.90;;;;;;;19.09;55.23;97574.94;10287414;28;20047;-28
2023/10/08 06:29:44;;;;;;;2.63;1.27;;;;;;;19.09;54.24;97565.59;10287853;28;20038;-28
2023/10/08 06:34:44;;;;;;;3.40;2.23;;;;;;;19.09;54.78;97567.31;10286359;28;20045;-28
2023/10/08 06:39:48;;;;;;;2.73;1.43;;;;;;;19.09;54.25;97574.94;10290768;28;20061;-28
2023/10/08 06:44:48;;;;;;;2.78;1.65;;;;;;;19.10;54.61;97582.53;10286039;28;20042;-30
2023/10/08 06:49:49;;;;;;;3.20;1.90;;;;;;;19.10;54.56;97584.25;10285475;28;20039;-28
2023/10/08 06:54:53;;;;;;;8.38;2.97;;;;;;;19.13;55.36;97600.38;10284490;28;20034;-28
2023/10/08 06:59:53;;;;;;;17.63;3.90;;;;;;;19.07;54.07;97607.91;10289937;28;20684;-28
2023/10/08 07:04:53;;;;;;;16.60;4.57;;;;;;;18.99;53.08;97613.72;10284327;28;20042;-29
2023/10/08 07:09:56;;;;;;;14.43;4.50;;;;;;;19.02;53.25;97618.84;10285280;28;20031;-27
2023/10/08 07:14:58;;;;;;;12.02;4.47;;;;;;;19.05;53.72;97623.94;10282882;28;20039;-28
2023/10/08 07:19:59;;;;;;;9.73;3.00;;;;;;;19.09;53.18;97630.78;10284802;28;20509;-27
2023/10/08 07:24:59;;;;;;;5.32;2.15;;;;;;;19.10;53.01;97624.84;10284394;28;20035;-28
2023/10/08 07:30:02;;;;;;;10.37;2.47;;;;;;;19.10;53.15;97622.31;10285839;28;20089;-27
2023/10/08 07:35:24;;;;;;;5.63;1.85;;;;;;;19.11;53.01;97621.47;10288899;28;20031;-27
2023/10/08 07:40:29;;;;;;;9.77;3.13;;;;;;;19.11;53.35;97619.81;10292897;28;20098;-28
2023/10/08 07:45:35;;;;;;;7.20;2.33;;;;;;;19.13;53.21;97624.88;10291931;28;20413;-27
2023/10/08 07:50:40;;;;;;;4.03;2.10;;;;;;;19.11;53.47;97614.72;10292819;28;20126;-28
2023/10/08 07:55:41;;;;;;;10.93;3.53;;;;;;;19.12;54.09;97630.78;10291578;28;20038;-27
2023/10/08 08:00:51;;;;;;;11.53;3.70;;;;;;;19.11;54.14;97624.88;10291460;28;20023;-27
2023/10/08 08:05:52;;;;;;;11.10;3.17;;;;;;;19.13;53.31;97635.03;10273522;28;20495;-27
2023/10/08 08:11:03;;;;;;;11.23;3.10;;;;;;;19.43;54.03;97623.56;10288661;28;20097;-28
2023/10/08 08:16:16;;;;;;;9.88;3.40;;;;;;;19.21;54.28;97638.56;10294517;28;20038;-28
2023/10/08 08:21:19;;;;;;;9.63;2.72;;;;;;;19.19;53.84;97637.69;10290391;28;20442;-28
2023/10/08 08:26:26;;;;;;;10.18;3.00;;;;;;;19.17;53.53;97631.72;10288540;28;20042;-28
2023/10/08 08:31:31;;;;;;;18.92;4.50;;;;;;;19.12;54.62;97633.34;10279693;28;20046;-28
2023/10/08 08:36:31;;;;;;;7.00;2.08;;;;;;;19.15;53.74;97635.91;10290656;28;20151;-28
2023/10/08 08:41:35;;;;;;;7.15;2.90;;;;;;;19.15;53.17;97625.75;10291717;28;20199;-28
2023/10/08 08:46:37;;;;;;;10.40;3.00;;;;;;;19.16;53.66;97637.63;10289011;28;20042;-28
2023/10/08 08:51:38;;;;;;;7.57;2.88;;;;;;;19.13;53.58;97625.75;10292705;28;20516;-28
2023/10/08 08:56:40;;;;;;;7.70;3.03;;;;;;;19.14;54.87;97616.44;10289244;28;20037;-28
2023/10/08 09:01:42;;;;;;;9.90;2.45;;;;;;;19.14;54.11;97624.03;10290445;28;20089;-27
2023/10/08 09:06:44;;;;;;;17.00;4.63;;;;;;;19.15;54.19;97615.59;10294741;28;20042;-28
2023/10/08 09:11:45;;;;;;;9.07;3.35;;;;;;;19.14;53.57;97618.97;10282870;28;20035;-27
2023/10/08 09:16:46;;;;;;;9.80;3.17;;;;;;;19.13;54.93;97627.41;10293009;28;20034;-28
2023/10/08 09:22:04;;;;;;;4.85;2.17;;;;;;;19.14;53.81;97624.91;10274940;28;20282;-27
2023/10/08 09:27:09;;;;;;;5.60;2.13;;;;;;;19.10;53.51;97619.78;10280785;28;20046;-27
2023/10/08 09:32:13;;;;;;;13.85;3.88;;;;;;;19.16;53.59;97635.09;10282749;28;20571;-28
2023/10/08 09:37:14;;;;;;;6.50;2.53;;;;;;;19.15;53.43;97630.81;10288550;28;20029;-27
2023/10/08 09:42:14;;;;;;;10.63;3.33;;;;;;;19.12;54.08;97629.13;10291877;28;20037;-28
2023/10/08 09:47:21;;;;;;;11.15;3.33;;;;;;;19.16;53.54;97637.63;10274043;28;20540;-27
2023/10/08 09:52:23;;;;;;;;;;;;;;;19.14;53.55;97635.06;10288253;28;20555;-28
2023/10/08 09:57:26;;;;;;;7.20;2.25;;;;;;;19.13;53.55;97638.44;10282364;28;20688;-28
2023/10/08 10:02:31;;;;;;;6.38;2.13;;;;;;;19.15;53.54;97646.06;10288886;28;20034;-27
2023/10/08 10:07:31;;;;;;;5.47;1.95;;;;;;;19.11;53.65;97652.81;10287508;28;20471;-28
2023/10/08 10:12:32;;;;;;;8.10;2.67;;;;;;;19.14;53.57;97660.44;10277668;28;20041;-27
2023/10/08 10:17:32;;;;;;;13.98;3.53;;;;;;;19.12;54.73;97653.66;10280709;28;20026;-28
2023/10/08 10:22:35;;;;;;;7.70;3.07;;;;;;;19.16;53.56;97668.94;10284024;28;20037;-29
2023/10/08 10:27:35;;;;;;;9.85;2.30;;;;;;;19.14;54.65;97669.75;10282228;28;20026;-28
2023/10/08 10:32:36;;;;;;;7.70;2.33;;;;;;;19.15;54.22;97671.44;10283013;28;20039;-28
2023/10/08 10:37:51;;;;;;;8.13;2.50;;;;;;;19.16;54.02;97678.25;10273028;28;20030;-28
2023/10/08 10:42:54;;;;;;;4.90;1.98;;;;;;;19.14;53.68;97675.69;10279509;28;20038;-28
2023/10/08 10:48:09;;;;;;;7.15;2.13;;;;;;;19.14;53.59;97669.75;10277176;28;20383;-28
2023/10/08 10:53:11;;;;;;;7.87;2.13;;;;;;;19.15;53.60;97681.59;10279707;28;20031;-28
2023/10/08 10:58:11;;;;;;;9.00;3.70;;;;;;;19.15;54.28;97686.66;10287825;28;20038;-28
2023/10/08 11:03:20;;;;;;;12.45;2.88;;;;;;;19.15;53.51;97689.22;10285394;28;20517;-29
2023/10/08 11:08:23;;;;;;;18.10;4.10;;;;;;;19.15;53.93;97694.28;10273385;28;20409;-27
2023/10/08 11:13:28;;;;;;;25.00;3.70;;;;;;;19.12;54.35;97676.47;10291238;28;20558;-28
2023/10/08 11:18:28;;;;;;;30.85;5.10;;;;;;;19.19;54.67;97674.06;10286602;28;20105;-27
2023/10/08 11:23:41;;;;;;;18.97;3.23;;;;;;;19.19;54.22;97663.91;10294407;28;20507;-27
2023/10/08 11:28:42;;;;;;;24.85;4.53;;;;;;;19.17;54.69;97662.19;10284773;28;20308;-28
2023/10/08 11:33:56;;;;;;;25.70;4.97;;;;;;;19.14;54.64;97659.59;10287550;28;20039;-28
2023/10/08 11:39:08;;;;;;;20.23;4.60;;;;;;;19.21;54.59;97659.72;10290228;28;20408;-29
2023/10/08 11:44:13;;;;;;;18.17;3.65;;;;;;;19.20;54.13;97659.69;10292430;28;20035;-26
2023/10/08 11:49:19;;;;;;;12.55;2.70;;;;;;;19.20;53.91;97655.50;10289290;28;20079;-28
2023/10/08 11:54:20;;;;;;;17.58;2.67;;;;;;;19.20;54.08;97645.34;10289615;28;20058;-29
2023/10/08 11:59:20;;;;;;;13.30;3.10;;;;;;;19.20;54.27;97634.31;10284923;28;20046;-28
2023/10/08 12:04:22;;;;;;;12.87;3.00;;;;;;;19.19;54.19;97643.59;10294108;28;20045;-28
2023/10/08 12:09:27;;;;;;;9.50;3.25;;;;;;;19.19;54.15;97642.75;10288615;28;20287;-28
2023/10/08 12:14:30;;;;;;;9.88;3.25;;;;;;;19.18;53.64;97631.72;10286050;28;20031;-27
2023/10/08 12:19:32;;;;;;;9.10;2.85;;;;;;;19.19;54.05;97627.53;10286129;28;20066;-28
2023/10/08 12:24:33;;;;;;;12.00;3.67;;;;;;;19.19;53.54;97618.22;10287763;28;20058;-28
2023/10/08 12:29:35;;;;;;;8.20;3.22;;;;;;;19.19;54.39;97612.31;10282020;28;20039;-28
2023/10/08 12:34:35;;;;;;;8.95;2.60;;;;;;;19.18;54.33;97606.31;10282490;28;20035;-27
2023/10/08 12:39:44;;;;;;;13.63;4.23;;;;;;;19.19;53.99;97602.16;10278392;28;20075;-28
2023/10/08 12:44:47;;;;;;;6.65;2.47;;;;;;;19.17;54.00;97597.00;10285816;28;20041;-28
2023/10/08 12:49:48;;;;;;;7.93;3.35;;;;;;;19.18;54.49;97590.25;10280441;28;20288;-28
2023/10/08 12:54:49;;;;;;;7.23;2.50;;;;;;;19.19;54.06;97592.00;10278896;28;20039;-28
2023/10/08 12:59:51;;;;;;;7.63;2.88;;;;;;;19.18;54.33;97580.09;10281238;28;20034;-27
2023/10/08 13:04:54;;;;;;;6.40;2.90;;;;;;;19.19;54.23;97586.91;10279332;28;20049;-27
2023/10/08 13:09:55;;;;;;;7.72;2.70;;;;;;;19.19;54.17;97576.75;10272951;28;20027;-28
2023/10/08 13:14:55;;;;;;;9.27;3.00;;;;;;;19.20;54.36;97575.91;10283841;28;20523;-28
2023/10/08 13:19:55;;;;;;;8.57;2.77;;;;;;;19.14;54.35;97563.13;10285022;28;20098;-27
2023/10/08 13:24:56;;;;;;;7.00;2.22;;;;;;;19.21;54.25;97578.50;10285044;28;20041;-27
2023/10/08 13:29:56;;;;;;;8.27;2.70;;;;;;;19.22;54.31;97576.78;10283076;28;20035;-28
2023/10/08 13:34:57;;;;;;;4.50;2.17;;;;;;;19.22;54.46;97579.31;10281977;28;20681;-28
2023/10/08 13:39:58;;;;;;;7.05;3.00;;;;;;;19.22;54.08;97576.78;10279765;28;20479;-27
2023/10/08 13:44:59;;;;;;;9.93;2.47;;;;;;;19.23;54.14;97573.41;10286913;28;20044;-28
2023/10/08 13:49:59;;;;;;;6.70;2.85;;;;;;;19.24;54.58;97570.88;10282227;28;20298;-28
2023/10/08 13:55:00;;;;;;;6.90;3.00;;;;;;;19.24;54.56;97559.91;10279027;28;20401;-29
2023/10/08 14:00:01;;;;;;;10.70;3.50;;;;;;;19.24;54.72;97555.66;10284788;28;20297;-28
2023/10/08 14:05:08;;;;;;;7.47;3.40;;;;;;;19.25;54.45;97556.53;10281659;28;20037;-28
2023/10/08 14:10:16;;;;;;;12.43;5.45;;;;;;;19.24;54.60;97545.50;10278298;28;20027;-28
2023/10/08 14:15:17;;;;;;;10.65;5.78;;;;;;;19.26;54.73;97545.53;10274315;28;20130;-27
2023/10/08 14:20:22;;;;;;;14.73;5.78;;;;;;;19.23;54.48;97531.09;10280555;28;20759;-27
2023/10/08 14:25:27;;;;;;;13.85;5.25;;;;;;;19.24;54.43;97526.91;10273204;28;20042;-28
2023/10/08 14:30:29;;;;;;;8.03;4.27;;;;;;;19.23;54.29;97520.09;10282644;28;20046;-28
2023/10/08 14:46:09;;;;;;;10.60;3.92;;;;;;;19.21;54.47;97515.03;10281576;28;20070;-27
2023/10/08 14:51:16;;;;;;;9.57;4.30;;;;;;;19.22;54.34;97520.94;10282549;28;20096;-27
2023/10/08 14:56:18;;;;;;;9.00;4.07;;;;;;;19.21;54.39;97519.22;10273259;28;20062;-31
2023/10/08 15:01:19;;;;;;;5.90;3.70;;;;;;;19.22;54.33;97511.63;10279423;28;20561;-28
2023/10/08 15:06:20;;;;;;;8.93;3.40;;;;;;;19.22;54.57;97505.69;10283388;28;20034;-27
2023/10/08 15:11:21;;;;;;;6.68;3.67;;;;;;;19.20;54.44;97502.28;10280016;28;20429;-26
2023/10/08 15:16:26;;;;;;;5.43;3.23;;;;;;;19.21;54.39;97509.94;10275035;28;20034;-27
2023/10/08 15:21:26;;;;;;;6.85;3.45;;;;;;;19.22;54.22;97510.78;10270284;28;20398;-28
2023/10/08 15:26:26;;;;;;;5.23;3.67;;;;;;;19.20;54.29;97500.63;10269320;28;20039;-28
2023/10/08 15:31:27;;;;;;;5.13;2.77;;;;;;;19.22;54.57;97506.56;10285176;28;20027;-27
2023/10/08 15:36:27;;;;;;;5.23;2.90;;;;;;;19.21;54.44;97511.63;10270718;28;20035;-28
2023/10/08 15:41:27;;;;;;;4.87;2.90;;;;;;;19.21;54.47;97514.16;10279361;28;20049;-27
2023/10/08 15:46:28;;;;;;;5.67;3.47;;;;;;;19.21;54.32;97509.06;10284672;28;20041;-29
2023/10/08 15:51:31;;;;;;;4.63;2.93;;;;;;;19.20;54.43;97503.16;10282412;28;20043;-28
2023/10/08 15:56:32;;;;;;;5.13;3.97;;;;;;;19.21;54.32;97506.53;10289945;28;20037;-27
2023/10/08 16:01:32;;;;;;;8.50;2.83;;;;;;;19.23;56.14;97512.47;10284515;28;20039;-28
2023/10/08 16:06:32;;;;;;;11.60;4.27;;;;;;;19.24;55.83;97514.19;10283606;28;20039;-27
2023/10/08 16:11:34;;;;;;;8.97;2.97;;;;;;;19.21;56.05;97509.94;10286302;28;20045;-28
2023/10/08 16:16:36;;;;;;;8.70;3.35;;;;;;;19.17;55.78;97503.09;10286098;28;20326;-27
2023/10/08 16:21:37;;;;;;;9.60;2.92;;;;;;;19.23;55.65;97512.47;10287564;28;20035;-28
2023/10/08 16:26:41;;;;;;;8.52;2.63;;;;;;;19.22;55.69;97515.84;10287335;28;20502;-28
2023/10/08 16:31:43;;;;;;;17.48;3.25;;;;;;;19.22;55.60;97519.25;10284309;28;20038;-28
2023/10/08 16:36:45;;;;;;;10.57;2.78;;;;;;;19.23;55.63;97523.50;10282235;28;20023;-28
2023/10/08 16:41:45;;;;;;;5.85;2.22;;;;;;;19.22;55.59;97521.78;10285692;28;20030;-28
2023/10/08 16:46:45;;;;;;;6.13;2.87;;;;;;;19.22;55.43;97531.09;10283910;28;20042;-28
2023/10/08 16:51:46;;;;;;;8.48;2.78;;;;;;;19.22;55.39;97520.94;10270935;28;20290;-28
2023/10/08 16:56:47;;;;;;;5.22;2.50;;;;;;;19.21;55.23;97527.72;10271400;28;20035;-27
2023/10/08 17:01:47;;;;;;;25.03;3.93;;;;;;;19.24;55.67;97534.50;10277053;28;20037;-28
2023/10/08 17:06:47;;;;;;;7.83;3.13;;;;;;;19.23;55.34;97532.78;10272424;28;20041;-28
2023/10/08 17:11:49;;;;;;;24.33;3.90;;;;;;;19.29;56.16;97532.84;10287476;28;20023;-28
2023/10/08 17:16:49;;;;;;;13.57;3.42;;;;;;;19.30;55.58;97534.56;10276916;28;20031;-29
2023/10/08 17:21:49;;;;;;;9.53;3.23;;;;;;;19.32;55.81;97543.88;10287948;28;20043;-28
2023/10/08 17:26:50;;;;;;;15.38;3.45;;;;;;;19.36;56.18;97538.03;10274166;28;20417;-28
2023/10/08 17:31:51;;;;;;;16.67;4.20;;;;;;;19.40;56.56;97536.34;10285558;28;20058;-28
2023/10/08 17:36:53;;;;;;;14.45;3.60;;;;;;;19.40;57.05;97546.50;10287523;28;20039;-27
2023/10/08 17:41:54;;;;;;;11.63;2.92;;;;;;;19.42;57.14;97549.91;10287087;28;20049;-27
2023/10/08 17:46:54;;;;;;;7.63;3.23;;;;;;;19.41;57.53;97550.75;10280226;28;20049;-28
2023/10/08 17:51:54;;;;;;;11.23;2.87;;;;;;;19.40;57.56;97551.56;10275585;28;20284;-28
2023/10/08 17:56:55;;;;;;;12.13;3.27;;;;;;;19.41;57.44;97543.16;10287569;28;20649;-28
2023/10/08 18:01:55;;;;;;;13.10;2.70;;;;;;;19.41;57.21;97535.53;10287855;28;20537;-27
2023/10/08 18:06:55;;;;;;;14.07;3.58;;;;;;;19.42;57.17;97534.69;10286653;28;20547;-27
2023/10/08 18:11:57;;;;;;;6.33;2.40;;;;;;;19.44;57.02;97531.28;10288308;28;20497;-27
2023/10/08 18:16:58;;;;;;;11.00;2.40;;;;;;;19.48;56.14;97527.09;10285115;28;20038;-28
2023/10/08 18:21:59;;;;;;;9.25;3.97;;;;;;;19.46;56.56;97536.41;10278580;28;20026;-28
2023/10/08 18:27:00;;;;;;;11.98;3.35;;;;;;;19.50;56.43;97533.06;10311339;28;20089;-28
2023/10/08 18:32:01;;;;;;;9.23;3.33;;;;;;;19.49;57.11;97531.38;10278368;28;20038;-28
2023/10/08 18:37:01;;;;;;;9.18;2.42;;;;;;;19.48;56.60;97535.59;10275483;28;20133;-28
2023/10/08 18:42:02;;;;;;;14.67;3.83;;;;;;;19.48;56.72;97527.09;10282438;28;20039;-27
2023/10/08 18:47:04;;;;;;;10.45;2.83;;;;;;;19.47;56.76;97522.84;10274812;28;20046;-28
2023/10/08 18:52:05;;;;;;;9.02;2.75;;;;;;;19.43;57.25;97516.06;10280808;28;20046;-27
2023/10/08 18:57:06;;;;;;;12.55;3.35;;;;;;;19.44;57.00;97510.97;10280903;28;20031;-28
2023/10/08 19:02:06;;;;;;;11.02;3.38;;;;;;;19.46;56.76;97523.69;10280017;28;20505;-28
2023/10/08 19:07:06;;;;;;;10.77;2.57;;;;;;;19.46;56.81;97516.94;10273928;28;20162;-28
2023/10/08 19:12:07;;;;;;;10.83;3.10;;;;;;;19.46;57.09;97511.00;10291329;28;20680;-28
2023/10/08 19:17:09;;;;;;;7.10;2.63;;;;;;;19.45;57.32;97504.22;10281375;28;20594;-28
2023/10/08 19:22:09;;;;;;;10.13;2.63;;;;;;;19.46;57.09;97505.91;10282011;28;20409;-27
2023/10/08 19:27:11;;;;;;;13.23;3.67;;;;;;;19.41;57.10;97494.91;10280236;28;20046;-28
2023/10/08 19:32:14;;;;;;;6.70;2.30;;;;;;;19.45;56.56;97510.16;10288898;28;20065;-28
2023/10/08 19:37:15;;;;;;;12.63;3.50;;;;;;;19.44;56.78;97489.81;10286717;28;20595;-28
2023/10/08 19:42:16;;;;;;;9.93;3.60;;;;;;;19.44;56.94;97489.81;10288955;28;20061;-28
2023/10/08 19:47:16;;;;;;;9.73;3.28;;;;;;;19.42;56.08;97494.88;10288083;28;20047;-28
2023/10/08 19:52:17;;;;;;;9.97;2.47;;;;;;;19.43;55.87;97500.81;10289817;28;20034;-28
2023/10/08 19:57:17;;;;;;;5.68;1.90;;;;;;;19.42;55.78;97499.13;10288196;28;20084;-28
2023/10/08 20:02:18;;;;;;;7.22;2.08;;;;;;;19.42;55.71;97494.88;10291017;28;20575;-28
2023/10/08 20:07:18;;;;;;;6.53;2.20;;;;;;;19.43;55.64;97495.75;10293228;28;20045;-27
2023/10/08 20:12:18;;;;;;;7.53;2.80;;;;;;;19.42;55.97;97479.66;10287956;28;20077;-27
2023/10/08 20:17:19;;;;;;;9.17;3.67;;;;;;;19.42;55.66;97478.81;10287311;28;20413;-29
2023/10/08 20:22:19;;;;;;;6.80;2.23;;;;;;;19.42;55.36;97489.81;10287481;28;20290;-27
2023/10/08 20:27:22;;;;;;;7.03;3.13;;;;;;;19.37;58.32;97490.59;10286932;28;20039;-27
2023/10/08 20:32:25;;;;;;;11.15;2.65;;;;;;;19.29;58.52;97494.78;10287107;28;20034;-27
2023/10/08 20:37:29;;;;;;;8.52;2.78;;;;;;;19.32;57.49;97498.19;10290000;28;20030;-28
2023/10/08 20:42:30;;;;;;;6.82;3.25;;;;;;;19.29;57.92;97497.31;10289036;28;20042;-28
2023/10/08 20:47:31;;;;;;;11.75;3.60;;;;;;;19.27;57.50;97496.44;10282097;28;20047;-27
2023/10/08 20:52:31;;;;;;;7.47;2.83;;;;;;;19.26;57.21;97494.75;10254474;28;20334;-27
2023/10/08 20:57:32;;;;;;;7.27;3.07;;;;;;;19.30;56.73;97499.88;10261540;28;20045;-27
2023/10/08 21:02:35;;;;;;;15.48;3.72;;;;;;;19.34;57.12;97495.66;10277497;28;20039;-27
2023/10/08 21:07:38;;;;;;;7.72;2.40;;;;;;;19.35;56.41;97492.28;10287889;28;20187;-27
2023/10/08 21:12:40;;;;;;;7.10;2.10;;;;;;;19.37;56.03;97495.69;10288951;28;20121;-27
2023/10/08 21:17:41;;;;;;;6.78;2.25;;;;;;;19.36;56.02;97486.38;10292249;28;20037;-29
2023/10/08 21:22:43;;;;;;;9.63;2.17;;;;;;;19.37;55.78;97480.44;10286237;28;20038;-27
2023/10/08 21:27:50;;;;;;;10.30;3.05;;;;;;;19.38;55.85;97475.41;10288763;28;20031;-28
2023/10/08 21:32:55;;;;;;;5.25;2.38;;;;;;;19.37;55.72;97467.75;10286109;28;20058;-28
2023/10/08 21:37:56;;;;;;;4.53;1.73;;;;;;;19.38;55.58;97467.78;10288848;28;20042;-28
2023/10/08 21:42:57;;;;;;;4.68;2.33;;;;;;;19.38;55.53;97461.84;10288289;28;20156;-27
2023/10/08 21:47:59;;;;;;;5.57;1.80;;;;;;;19.36;55.40;97458.44;10287411;28;20062;-28
2023/10/08 21:53:00;;;;;;;6.22;1.67;;;;;;;19.37;55.53;97458.47;10287560;28;20039;-28
2023/10/08 21:58:00;;;;;;;3.67;1.63;;;;;;;19.37;55.33;97453.38;10287394;28;20477;-29
2023/10/08 22:03:01;;;;;;;7.53;2.10;;;;;;;19.38;55.58;97451.69;10287490;28;20378;-28
2023/10/08 22:08:06;;;;;;;5.32;2.10;;;;;;;19.35;55.40;97446.59;10287246;28;20807;-28
2023/10/08 22:13:08;;;;;;;5.38;2.03;;;;;;;19.38;55.65;97446.59;10284482;28;20039;-28
2023/10/08 22:18:08;;;;;;;4.97;1.67;;;;;;;19.37;55.33;97447.44;10284112;28;20454;-27
2023/10/08 22:23:14;;;;;;;4.43;1.80;;;;;;;19.38;55.28;97438.97;10281026;28;20054;-28
2023/10/08 22:28:19;;;;;;;6.07;2.00;;;;;;;19.37;55.41;97437.28;10286524;28;20304;-28
2023/10/08 22:33:34;;;;;;;6.07;1.95;;;;;;;19.36;55.57;97435.59;10285805;28;20035;-28
2023/10/08 22:38:35;;;;;;;6.35;1.92;;;;;;;19.37;55.62;97429.66;10287029;28;20041;-28
2023/10/08 22:43:45;;;;;;;4.57;1.65;;;;;;;19.36;55.38;97422.88;10286153;28;20066;-27
2023/10/08 22:48:49;;;;;;;5.95;1.60;;;;;;;19.36;55.07;97420.34;10279570;28;20030;-27
2023/10/08 22:53:51;;;;;;;4.13;1.58;;;;;;;19.36;55.31;97410.19;10285530;28;20026;-28
2023/10/08 22:58:52;;;;;;;2.58;1.48;;;;;;;19.35;55.38;97403.41;10286224;28;20085;-28
2023/10/08 23:03:52;;;;;;;4.88;1.67;;;;;;;19.35;55.49;97390.72;10287931;28;20505;-28
2023/10/08 23:08:54;;;;;;;3.87;1.70;;;;;;;19.36;55.19;97387.34;10292792;28;20101;-28
2023/10/08 23:13:58;;;;;;;2.78;1.48;;;;;;;19.36;55.23;97388.22;10294311;28;20285;-28
2023/10/08 23:19:01;;;;;;;4.57;1.52;;;;;;;19.37;55.40;97391.56;10293028;28;20496;-29
2023/10/08 23:24:06;;;;;;;4.32;1.65;;;;;;;19.35;55.09;97391.56;10293225;28;20101;-30
2023/10/08 23:29:07;;;;;;;4.22;1.50;;;;;;;19.37;55.27;97389.03;10293819;28;20042;-30
2023/10/08 23:34:10;;;;;;;3.83;2.00;;;;;;;19.34;55.39;97384.78;10292302;28;20394;-28
2023/10/08 23:39:16;;;;;;;2.58;1.40;;;;;;;19.36;55.47;97379.72;10294186;28;20599;-28
2023/10/08 23:44:29;;;;;;;5.18;1.95;;;;;;;19.36;55.25;97387.34;10294340;28;20035;-27
2023/10/08 23:49:30;;;;;;;7.82;1.90;;;;;;;19.36;55.34;97377.19;10293129;28;20141;-29
2023/10/08 23:54:33;;;;;;;2.58;1.42;;;;;;;19.35;55.61;97376.31;10290199;28;20082;-29
2023/10/08 23:59:42;;;;;;;4.18;1.77;;;;;;;19.36;55.52;97377.19;10296382;28;20030;-28
